sensor_id;sensor_type;location;lat;lon;timestamp;P1;durP1;ratioP1;P2;durP2;ratioP2
24813;SDS011;12904;50.088;11.414;2022-09-09T00:09:45;3.63;;;2.30;;
24813;SDS011;12904;50.088;11.414;2022-09-09T00:12:12;3.15;;;1.83;;
24813;SDS011;12904;50.088;11.414;2022-09-09T00:17:17;3.92;;;2.22;;
24813;SDS011;12904;50.088;11.414;2022-09-09T00:19:50;4.75;;;2.40;;
24813;SDS011;12904;50.088;11.414;2022-09-09T00:22:25;3.70;;;2.53;;
24813;SDS011;12904;50.088;11.414;2022-09-09T00:24:56;3.38;;;2.25;;
24813;SDS011;12904;50.088;11.414;2022-09-09T00:27:42;3.45;;;2.10;;
24813;SDS011;12904;50.088;11.414;2022-09-09T00:30:18;3.55;;;2.05;;
24813;SDS011;12904;50.088;11.414;2022-09-09T00:32:55;5.00;;;1.92;;
24813;SDS011;12904;50.088;11.414;2022-09-09T00:35:27;3.80;;;1.80;;
24813;SDS011;12904;50.088;11.414;2022-09-09T00:38:01;5.68;;;2.20;;
24813;SDS011;12904;50.088;11.414;2022-09-09T00:40:37;2.50;;;2.00;;
24813;SDS011;12904;50.088;11.414;2022-09-09T00:43:32;2.40;;;1.83;;
24813;SDS011;12904;50.088;11.414;2022-09-09T00:57:41;5.57;;;2.50;;
24813;SDS011;12904;50.088;11.414;2022-09-09T01:02:31;3.90;;;2.10;;
24813;SDS011;12904;50.088;11.414;2022-09-09T01:05:12;4.53;;;2.20;;
24813;SDS011;12904;50.088;11.414;2022-09-09T01:07:45;3.58;;;2.20;;
24813;SDS011;12904;50.088;11.414;2022-09-09T01:10:26;3.00;;;1.92;;
24813;SDS011;12904;50.088;11.414;2022-09-09T01:13:02;3.38;;;2.00;;
24813;SDS011;12904;50.088;11.414;2022-09-09T01:15:38;2.20;;;2.00;;
24813;SDS011;12904;50.088;11.414;2022-09-09T01:18:07;2.35;;;2.15;;
24813;SDS011;12904;50.088;11.414;2022-09-09T01:28:50;2.35;;;1.88;;
24813;SDS011;12904;50.088;11.414;2022-09-09T01:33:45;3.67;;;1.70;;
24813;SDS011;12904;50.088;11.414;2022-09-09T01:36:17;2.95;;;1.77;;
24813;SDS011;12904;50.088;11.414;2022-09-09T01:39:05;3.40;;;1.90;;
24813;SDS011;12904;50.088;11.414;2022-09-09T01:41:31;4.78;;;2.25;;
24813;SDS011;12904;50.088;11.414;2022-09-09T01:43:57;3.80;;;1.63;;
24813;SDS011;12904;50.088;11.414;2022-09-09T01:46:23;2.45;;;1.60;;
24813;SDS011;12904;50.088;11.414;2022-09-09T01:48:52;5.00;;;1.58;;
24813;SDS011;12904;50.088;11.414;2022-09-09T01:51:19;3.70;;;1.95;;
24813;SDS011;12904;50.088;11.414;2022-09-09T01:53:45;2.15;;;1.48;;
24813;SDS011;12904;50.088;11.414;2022-09-09T01:56:21;3.78;;;1.70;;
24813;SDS011;12904;50.088;11.414;2022-09-09T02:02:13;5.50;;;1.85;;
24813;SDS011;12904;50.088;11.414;2022-09-09T02:05:22;7.50;;;2.00;;
24813;SDS011;12904;50.088;11.414;2022-09-09T02:07:50;5.30;;;1.73;;
24813;SDS011;12904;50.088;11.414;2022-09-09T02:10:28;3.22;;;1.60;;
24813;SDS011;12904;50.088;11.414;2022-09-09T02:13:02;3.78;;;1.50;;
24813;SDS011;12904;50.088;11.414;2022-09-09T02:15:38;3.13;;;2.17;;
24813;SDS011;12904;50.088;11.414;2022-09-09T02:18:12;3.03;;;1.90;;
24813;SDS011;12904;50.088;11.414;2022-09-09T02:20:41;3.17;;;2.17;;
24813;SDS011;12904;50.088;11.414;2022-09-09T02:23:09;3.13;;;2.00;;
24813;SDS011;12904;50.088;11.414;2022-09-09T02:25:37;6.18;;;2.35;;
24813;SDS011;12904;50.088;11.414;2022-09-09T02:28:06;4.55;;;1.92;;
24813;SDS011;12904;50.088;11.414;2022-09-09T02:30:34;2.65;;;2.10;;
24813;SDS011;12904;50.088;11.414;2022-09-09T02:33:03;4.53;;;2.15;;
24813;SDS011;12904;50.088;11.414;2022-09-09T02:35:32;4.95;;;1.80;;
24813;SDS011;12904;50.088;11.414;2022-09-09T02:37:59;2.15;;;1.85;;
24813;SDS011;12904;50.088;11.414;2022-09-09T02:40:29;5.50;;;2.10;;
24813;SDS011;12904;50.088;11.414;2022-09-09T02:42:55;6.35;;;2.55;;
24813;SDS011;12904;50.088;11.414;2022-09-09T02:45:23;1.83;;;1.67;;
24813;SDS011;12904;50.088;11.414;2022-09-09T02:50:57;3.08;;;1.85;;
24813;SDS011;12904;50.088;11.414;2022-09-09T02:53:47;2.58;;;1.73;;
24813;SDS011;12904;50.088;11.414;2022-09-09T02:56:42;7.72;;;2.10;;
24813;SDS011;12904;50.088;11.414;2022-09-09T02:59:15;9.85;;;2.15;;
24813;SDS011;12904;50.088;11.414;2022-09-09T03:01:43;3.85;;;2.03;;
24813;SDS011;12904;50.088;11.414;2022-09-09T03:04:09;2.28;;;1.90;;
24813;SDS011;12904;50.088;11.414;2022-09-09T03:06:34;4.38;;;2.55;;
24813;SDS011;12904;50.088;11.414;2022-09-09T03:09:00;4.80;;;2.00;;
24813;SDS011;12904;50.088;11.414;2022-09-09T03:11:27;3.45;;;1.95;;
24813;SDS011;12904;50.088;11.414;2022-09-09T03:13:53;5.22;;;2.05;;
24813;SDS011;12904;50.088;11.414;2022-09-09T03:16:21;3.63;;;1.88;;
24813;SDS011;12904;50.088;11.414;2022-09-09T03:18:47;6.25;;;1.90;;
24813;SDS011;12904;50.088;11.414;2022-09-09T03:21:13;3.78;;;2.17;;
24813;SDS011;12904;50.088;11.414;2022-09-09T03:23:39;3.70;;;2.03;;
24813;SDS011;12904;50.088;11.414;2022-09-09T03:26:05;4.65;;;2.72;;
24813;SDS011;12904;50.088;11.414;2022-09-09T03:28:31;3.88;;;2.05;;
24813;SDS011;12904;50.088;11.414;2022-09-09T03:31:03;2.38;;;1.80;;
24813;SDS011;12904;50.088;11.414;2022-09-09T03:33:30;2.67;;;2.13;;
24813;SDS011;12904;50.088;11.414;2022-09-09T03:35:56;6.13;;;2.10;;
24813;SDS011;12904;50.088;11.414;2022-09-09T03:38:23;3.53;;;2.05;;
24813;SDS011;12904;50.088;11.414;2022-09-09T03:40:58;3.58;;;1.90;;
24813;SDS011;12904;50.088;11.414;2022-09-09T03:43:24;2.92;;;2.00;;
24813;SDS011;12904;50.088;11.414;2022-09-09T03:45:51;2.90;;;1.63;;
24813;SDS011;12904;50.088;11.414;2022-09-09T03:48:17;4.35;;;2.30;;
24813;SDS011;12904;50.088;11.414;2022-09-09T03:50:45;2.67;;;1.83;;
24813;SDS011;12904;50.088;11.414;2022-09-09T03:53:11;3.22;;;2.25;;
24813;SDS011;12904;50.088;11.414;2022-09-09T03:55:37;2.50;;;2.10;;
24813;SDS011;12904;50.088;11.414;2022-09-09T03:58:02;2.92;;;2.10;;
24813;SDS011;12904;50.088;11.414;2022-09-09T04:00:28;2.15;;;1.88;;
24813;SDS011;12904;50.088;11.414;2022-09-09T04:02:55;2.97;;;1.92;;
24813;SDS011;12904;50.088;11.414;2022-09-09T04:05:21;4.10;;;1.90;;
24813;SDS011;12904;50.088;11.414;2022-09-09T04:07:47;4.30;;;2.60;;
24813;SDS011;12904;50.088;11.414;2022-09-09T04:10:13;3.50;;;2.33;;
24813;SDS011;12904;50.088;11.414;2022-09-09T04:12:38;2.50;;;1.92;;
24813;SDS011;12904;50.088;11.414;2022-09-09T04:15:04;2.05;;;1.85;;
24813;SDS011;12904;50.088;11.414;2022-09-09T04:17:30;3.67;;;2.00;;
24813;SDS011;12904;50.088;11.414;2022-09-09T04:19:56;5.25;;;2.50;;
24813;SDS011;12904;50.088;11.414;2022-09-09T04:22:22;4.28;;;2.20;;
24813;SDS011;12904;50.088;11.414;2022-09-09T04:24:47;2.08;;;1.80;;
24813;SDS011;12904;50.088;11.414;2022-09-09T04:27:13;5.22;;;2.33;;
24813;SDS011;12904;50.088;11.414;2022-09-09T04:29:38;4.32;;;2.42;;
24813;SDS011;12904;50.088;11.414;2022-09-09T04:32:04;4.45;;;2.10;;
24813;SDS011;12904;50.088;11.414;2022-09-09T04:34:30;5.00;;;2.22;;
24813;SDS011;12904;50.088;11.414;2022-09-09T04:36:56;2.75;;;2.55;;
24813;SDS011;12904;50.088;11.414;2022-09-09T04:39:22;8.98;;;2.72;;
24813;SDS011;12904;50.088;11.414;2022-09-09T04:41:47;3.08;;;2.30;;
24813;SDS011;12904;50.088;11.414;2022-09-09T04:44:13;3.88;;;2.65;;
24813;SDS011;12904;50.088;11.414;2022-09-09T04:46:39;2.50;;;2.22;;
24813;SDS011;12904;50.088;11.414;2022-09-09T04:49:06;4.80;;;2.92;;
24813;SDS011;12904;50.088;11.414;2022-09-09T04:51:31;3.65;;;2.65;;
24813;SDS011;12904;50.088;11.414;2022-09-09T04:53:57;2.88;;;2.60;;
24813;SDS011;12904;50.088;11.414;2022-09-09T04:56:23;3.38;;;2.70;;
24813;SDS011;12904;50.088;11.414;2022-09-09T04:58:51;4.38;;;2.50;;
24813;SDS011;12904;50.088;11.414;2022-09-09T05:01:18;7.00;;;2.67;;
24813;SDS011;12904;50.088;11.414;2022-09-09T05:03:46;4.15;;;2.92;;
24813;SDS011;12904;50.088;11.414;2022-09-09T05:06:13;3.50;;;3.20;;
24813;SDS011;12904;50.088;11.414;2022-09-09T05:08:41;2.90;;;2.55;;
24813;SDS011;12904;50.088;11.414;2022-09-09T05:11:18;3.67;;;2.95;;
24813;SDS011;12904;50.088;11.414;2022-09-09T05:13:45;3.33;;;2.97;;
24813;SDS011;12904;50.088;11.414;2022-09-09T05:16:12;5.93;;;2.70;;
24813;SDS011;12904;50.088;11.414;2022-09-09T05:18:39;4.47;;;2.38;;
24813;SDS011;12904;50.088;11.414;2022-09-09T05:21:05;3.28;;;2.40;;
24813;SDS011;12904;50.088;11.414;2022-09-09T05:23:31;4.15;;;2.72;;
24813;SDS011;12904;50.088;11.414;2022-09-09T05:25:59;4.00;;;2.70;;
24813;SDS011;12904;50.088;11.414;2022-09-09T05:28:25;4.13;;;2.42;;
24813;SDS011;12904;50.088;11.414;2022-09-09T05:30:58;3.53;;;2.80;;
24813;SDS011;12904;50.088;11.414;2022-09-09T05:33:26;5.75;;;2.83;;
24813;SDS011;12904;50.088;11.414;2022-09-09T05:35:58;4.70;;;2.67;;
24813;SDS011;12904;50.088;11.414;2022-09-09T05:38:27;2.90;;;2.63;;
24813;SDS011;12904;50.088;11.414;2022-09-09T05:40:53;3.13;;;2.50;;
24813;SDS011;12904;50.088;11.414;2022-09-09T05:43:20;3.97;;;2.40;;
24813;SDS011;12904;50.088;11.414;2022-09-09T05:45:46;2.67;;;2.47;;
24813;SDS011;12904;50.088;11.414;2022-09-09T05:48:12;3.50;;;2.95;;
24813;SDS011;12904;50.088;11.414;2022-09-09T05:50:40;2.88;;;2.47;;
24813;SDS011;12904;50.088;11.414;2022-09-09T05:53:06;4.82;;;2.90;;
24813;SDS011;12904;50.088;11.414;2022-09-09T05:55:31;4.53;;;2.88;;
24813;SDS011;12904;50.088;11.414;2022-09-09T05:57:57;4.03;;;2.80;;
24813;SDS011;12904;50.088;11.414;2022-09-09T06:00:23;4.30;;;2.70;;
24813;SDS011;12904;50.088;11.414;2022-09-09T06:02:52;2.97;;;2.67;;
24813;SDS011;12904;50.088;11.414;2022-09-09T06:05:18;5.45;;;3.03;;
24813;SDS011;12904;50.088;11.414;2022-09-09T06:07:44;3.85;;;2.50;;
24813;SDS011;12904;50.088;11.414;2022-09-09T06:10:10;4.63;;;2.78;;
24813;SDS011;12904;50.088;11.414;2022-09-09T06:12:38;4.30;;;2.78;;
24813;SDS011;12904;50.088;11.414;2022-09-09T06:15:04;3.30;;;2.38;;
24813;SDS011;12904;50.088;11.414;2022-09-09T06:17:30;3.00;;;2.47;;
24813;SDS011;12904;50.088;11.414;2022-09-09T06:19:56;2.20;;;2.00;;
24813;SDS011;12904;50.088;11.414;2022-09-09T06:22:22;2.30;;;2.08;;
24813;SDS011;12904;50.088;11.414;2022-09-09T06:24:47;3.53;;;2.22;;
24813;SDS011;12904;50.088;11.414;2022-09-09T06:27:13;2.83;;;1.98;;
24813;SDS011;12904;50.088;11.414;2022-09-09T06:29:39;5.13;;;2.67;;
24813;SDS011;12904;50.088;11.414;2022-09-09T06:32:04;3.85;;;2.30;;
24813;SDS011;12904;50.088;11.414;2022-09-09T06:34:30;3.53;;;2.40;;
24813;SDS011;12904;50.088;11.414;2022-09-09T06:36:56;2.42;;;1.90;;
24813;SDS011;12904;50.088;11.414;2022-09-09T06:39:23;3.95;;;2.03;;
24813;SDS011;12904;50.088;11.414;2022-09-09T06:41:48;2.38;;;1.50;;
24813;SDS011;12904;50.088;11.414;2022-09-09T06:44:14;1.88;;;1.58;;
24813;SDS011;12904;50.088;11.414;2022-09-09T06:46:41;2.70;;;1.70;;
24813;SDS011;12904;50.088;11.414;2022-09-09T06:49:08;3.15;;;1.60;;
24813;SDS011;12904;50.088;11.414;2022-09-09T06:51:35;6.97;;;1.98;;
24813;SDS011;12904;50.088;11.414;2022-09-09T06:54:02;2.22;;;1.83;;
24813;SDS011;12904;50.088;11.414;2022-09-09T06:56:30;2.38;;;1.80;;
24813;SDS011;12904;50.088;11.414;2022-09-09T06:59:01;3.35;;;1.70;;
24813;SDS011;12904;50.088;11.414;2022-09-09T07:01:34;3.67;;;1.90;;
24813;SDS011;12904;50.088;11.414;2022-09-09T07:04:03;2.20;;;2.00;;
24813;SDS011;12904;50.088;11.414;2022-09-09T07:06:32;3.30;;;1.80;;
24813;SDS011;12904;50.088;11.414;2022-09-09T07:09:01;2.55;;;1.55;;
24813;SDS011;12904;50.088;11.414;2022-09-09T07:11:29;4.40;;;1.70;;
24813;SDS011;12904;50.088;11.414;2022-09-09T07:13:57;2.65;;;1.63;;
24813;SDS011;12904;50.088;11.414;2022-09-09T07:16:24;2.35;;;1.98;;
24813;SDS011;12904;50.088;11.414;2022-09-09T07:18:50;2.78;;;1.83;;
24813;SDS011;12904;50.088;11.414;2022-09-09T07:21:18;2.60;;;1.80;;
24813;SDS011;12904;50.088;11.414;2022-09-09T07:23:45;5.07;;;1.92;;
24813;SDS011;12904;50.088;11.414;2022-09-09T07:26:15;2.83;;;1.77;;
24813;SDS011;12904;50.088;11.414;2022-09-09T07:28:44;2.65;;;1.70;;
24813;SDS011;12904;50.088;11.414;2022-09-09T07:31:20;3.65;;;1.92;;
24813;SDS011;12904;50.088;11.414;2022-09-09T07:33:47;3.05;;;1.90;;
24813;SDS011;12904;50.088;11.414;2022-09-09T07:36:15;2.13;;;1.45;;
24813;SDS011;12904;50.088;11.414;2022-09-09T07:38:46;3.53;;;2.05;;
24813;SDS011;12904;50.088;11.414;2022-09-09T07:41:18;4.43;;;1.90;;
24813;SDS011;12904;50.088;11.414;2022-09-09T07:43:48;2.50;;;1.83;;
24813;SDS011;12904;50.088;11.414;2022-09-09T07:46:15;3.05;;;1.85;;
24813;SDS011;12904;50.088;11.414;2022-09-09T07:48:45;3.42;;;1.70;;
24813;SDS011;12904;50.088;11.414;2022-09-09T07:51:16;4.78;;;1.58;;
24813;SDS011;12904;50.088;11.414;2022-09-09T07:56:14;2.15;;;1.30;;
24813;SDS011;12904;50.088;11.414;2022-09-09T07:58:47;2.13;;;1.60;;
24813;SDS011;12904;50.088;11.414;2022-09-09T08:03:52;2.78;;;1.52;;
24813;SDS011;12904;50.088;11.414;2022-09-09T08:06:30;3.28;;;1.73;;
24813;SDS011;12904;50.088;11.414;2022-09-09T08:08:58;3.47;;;1.75;;
24813;SDS011;12904;50.088;11.414;2022-09-09T08:11:24;3.20;;;1.70;;
24813;SDS011;12904;50.088;11.414;2022-09-09T08:13:52;2.38;;;1.60;;
24813;SDS011;12904;50.088;11.414;2022-09-09T08:16:22;4.20;;;1.60;;
24813;SDS011;12904;50.088;11.414;2022-09-09T08:18:53;1.40;;;1.20;;
24813;SDS011;12904;50.088;11.414;2022-09-09T08:21:24;1.60;;;1.05;;
24813;SDS011;12904;50.088;11.414;2022-09-09T08:23:54;3.47;;;1.25;;
24813;SDS011;12904;50.088;11.414;2022-09-09T08:26:22;2.28;;;1.10;;
24813;SDS011;12904;50.088;11.414;2022-09-09T08:28:50;2.65;;;0.93;;
24813;SDS011;12904;50.088;11.414;2022-09-09T08:31:19;3.22;;;1.02;;
24813;SDS011;12904;50.088;11.414;2022-09-09T08:33:47;1.20;;;0.75;;
24813;SDS011;12904;50.088;11.414;2022-09-09T08:36:14;2.42;;;1.15;;
24813;SDS011;12904;50.088;11.414;2022-09-09T08:38:42;2.65;;;1.05;;
24813;SDS011;12904;50.088;11.414;2022-09-09T08:44:07;2.75;;;0.80;;
24813;SDS011;12904;50.088;11.414;2022-09-09T08:46:39;2.38;;;1.23;;
24813;SDS011;12904;50.088;11.414;2022-09-09T08:52:02;1.27;;;0.77;;
24813;SDS011;12904;50.088;11.414;2022-09-09T08:54:38;2.83;;;0.90;;
24813;SDS011;12904;50.088;11.414;2022-09-09T08:57:05;1.70;;;0.88;;
24813;SDS011;12904;50.088;11.414;2022-09-09T08:59:43;1.83;;;0.90;;
24813;SDS011;12904;50.088;11.414;2022-09-09T09:02:16;1.08;;;0.70;;
24813;SDS011;12904;50.088;11.414;2022-09-09T09:04:56;1.55;;;0.68;;
24813;SDS011;12904;50.088;11.414;2022-09-09T09:13:01;1.70;;;0.70;;
24813;SDS011;12904;50.088;11.414;2022-09-09T09:15:31;1.98;;;0.65;;
24813;SDS011;12904;50.088;11.414;2022-09-09T09:18:02;1.92;;;0.60;;
24813;SDS011;12904;50.088;11.414;2022-09-09T09:23:24;1.88;;;0.73;;
24813;SDS011;12904;50.088;11.414;2022-09-09T09:26:00;1.90;;;0.65;;
24813;SDS011;12904;50.088;11.414;2022-09-09T09:28:30;1.27;;;0.52;;
24813;SDS011;12904;50.088;11.414;2022-09-09T09:30:59;2.55;;;0.75;;
24813;SDS011;12904;50.088;11.414;2022-09-09T09:33:54;2.22;;;0.50;;
24813;SDS011;12904;50.088;11.414;2022-09-09T09:36:24;3.65;;;0.60;;
24813;SDS011;12904;50.088;11.414;2022-09-09T09:38:59;2.30;;;0.70;;
24813;SDS011;12904;50.088;11.414;2022-09-09T09:41:30;2.33;;;0.63;;
24813;SDS011;12904;50.088;11.414;2022-09-09T09:44:01;1.33;;;0.60;;
24813;SDS011;12904;50.088;11.414;2022-09-09T09:46:27;3.38;;;0.75;;
24813;SDS011;12904;50.088;11.414;2022-09-09T09:49:00;1.80;;;0.50;;
24813;SDS011;12904;50.088;11.414;2022-09-09T09:51:33;2.07;;;0.73;;
24813;SDS011;12904;50.088;11.414;2022-09-09T09:54:06;1.92;;;0.60;;
24813;SDS011;12904;50.088;11.414;2022-09-09T09:56:34;2.58;;;0.80;;
24813;SDS011;12904;50.088;11.414;2022-09-09T09:59:00;3.28;;;0.57;;
24813;SDS011;12904;50.088;11.414;2022-09-09T10:01:27;1.67;;;0.68;;
24813;SDS011;12904;50.088;11.414;2022-09-09T10:04:18;1.85;;;0.60;;
24813;SDS011;12904;50.088;11.414;2022-09-09T10:06:49;1.95;;;0.80;;
24813;SDS011;12904;50.088;11.414;2022-09-09T10:09:30;1.90;;;0.63;;
24813;SDS011;12904;50.088;11.414;2022-09-09T10:22:47;2.05;;;0.65;;
24813;SDS011;12904;50.088;11.414;2022-09-09T10:28:22;1.85;;;0.50;;
24813;SDS011;12904;50.088;11.414;2022-09-09T10:36:22;2.40;;;0.47;;
24813;SDS011;12904;50.088;11.414;2022-09-09T10:38:54;2.38;;;0.65;;
24813;SDS011;12904;50.088;11.414;2022-09-09T10:41:31;1.85;;;0.50;;
24813;SDS011;12904;50.088;11.414;2022-09-09T10:44:06;1.90;;;0.57;;
24813;SDS011;12904;50.088;11.414;2022-09-09T10:55:10;1.23;;;0.50;;
24813;SDS011;12904;50.088;11.414;2022-09-09T10:57:43;1.92;;;0.60;;
24813;SDS011;12904;50.088;11.414;2022-09-09T11:02:49;2.47;;;0.60;;
24813;SDS011;12904;50.088;11.414;2022-09-09T11:05:24;2.83;;;0.60;;
24813;SDS011;12904;50.088;11.414;2022-09-09T11:08:01;2.97;;;1.23;;
24813;SDS011;12904;50.088;11.414;2022-09-09T11:13:24;0.77;;;0.50;;
24813;SDS011;12904;50.088;11.414;2022-09-09T11:16:10;1.20;;;0.50;;
24813;SDS011;12904;50.088;11.414;2022-09-09T11:18:48;2.15;;;0.50;;
24813;SDS011;12904;50.088;11.414;2022-09-09T11:21:17;0.88;;;0.50;;
24813;SDS011;12904;50.088;11.414;2022-09-09T11:23:59;1.75;;;0.50;;
24813;SDS011;12904;50.088;11.414;2022-09-09T11:26:40;2.60;;;0.60;;
24813;SDS011;12904;50.088;11.414;2022-09-09T11:34:33;1.33;;;0.40;;
24813;SDS011;12904;50.088;11.414;2022-09-09T11:42:42;1.10;;;0.50;;
24813;SDS011;12904;50.088;11.414;2022-09-09T11:45:09;2.65;;;0.70;;
24813;SDS011;12904;50.088;11.414;2022-09-09T11:47:51;3.30;;;0.88;;
24813;SDS011;12904;50.088;11.414;2022-09-09T11:52:45;1.33;;;0.52;;
24813;SDS011;12904;50.088;11.414;2022-09-09T11:57:57;2.92;;;0.77;;
24813;SDS011;12904;50.088;11.414;2022-09-09T12:06:19;2.20;;;0.50;;
24813;SDS011;12904;50.088;11.414;2022-09-09T12:08:56;1.67;;;0.47;;
24813;SDS011;12904;50.088;11.414;2022-09-09T12:11:30;2.42;;;0.70;;
24813;SDS011;12904;50.088;11.414;2022-09-09T12:13:59;1.65;;;0.57;;
24813;SDS011;12904;50.088;11.414;2022-09-09T12:19:14;1.05;;;0.40;;
24813;SDS011;12904;50.088;11.414;2022-09-09T12:24:56;1.95;;;0.57;;
24813;SDS011;12904;50.088;11.414;2022-09-09T12:30:44;2.58;;;0.85;;
24813;SDS011;12904;50.088;11.414;2022-09-09T12:33:16;0.73;;;0.50;;
24813;SDS011;12904;50.088;11.414;2022-09-09T12:35:43;1.30;;;0.70;;
24813;SDS011;12904;50.088;11.414;2022-09-09T12:38:15;2.85;;;0.55;;
24813;SDS011;12904;50.088;11.414;2022-09-09T12:40:57;2.85;;;0.75;;
24813;SDS011;12904;50.088;11.414;2022-09-09T12:43:24;2.78;;;0.60;;
24813;SDS011;12904;50.088;11.414;2022-09-09T12:45:58;2.55;;;0.80;;
24813;SDS011;12904;50.088;11.414;2022-09-09T12:48:38;1.60;;;0.50;;
24813;SDS011;12904;50.088;11.414;2022-09-09T12:51:19;1.27;;;0.60;;
24813;SDS011;12904;50.088;11.414;2022-09-09T12:56:20;0.80;;;0.43;;
24813;SDS011;12904;50.088;11.414;2022-09-09T12:58:48;2.83;;;0.60;;
24813;SDS011;12904;50.088;11.414;2022-09-09T13:03:48;1.38;;;0.50;;
24813;SDS011;12904;50.088;11.414;2022-09-09T13:06:17;3.00;;;0.70;;
24813;SDS011;12904;50.088;11.414;2022-09-09T13:08:52;2.22;;;0.52;;
24813;SDS011;12904;50.088;11.414;2022-09-09T13:11:20;6.78;;;0.77;;
24813;SDS011;12904;50.088;11.414;2022-09-09T13:13:54;3.83;;;0.90;;
24813;SDS011;12904;50.088;11.414;2022-09-09T13:16:28;3.28;;;0.60;;
24813;SDS011;12904;50.088;11.414;2022-09-09T13:18:58;2.72;;;0.70;;
24813;SDS011;12904;50.088;11.414;2022-09-09T13:21:36;3.00;;;0.60;;
24813;SDS011;12904;50.088;11.414;2022-09-09T13:24:04;3.03;;;0.90;;
24813;SDS011;12904;50.088;11.414;2022-09-09T13:26:32;4.03;;;0.80;;
24813;SDS011;12904;50.088;11.414;2022-09-09T13:29:14;4.03;;;0.77;;
24813;SDS011;12904;50.088;11.414;2022-09-09T13:31:45;4.03;;;0.88;;
24813;SDS011;12904;50.088;11.414;2022-09-09T13:34:12;3.75;;;0.60;;
24813;SDS011;12904;50.088;11.414;2022-09-09T13:36:39;3.03;;;0.55;;
24813;SDS011;12904;50.088;11.414;2022-09-09T13:39:14;3.05;;;0.70;;
24813;SDS011;12904;50.088;11.414;2022-09-09T13:41:43;3.80;;;0.70;;
24813;SDS011;12904;50.088;11.414;2022-09-09T13:47:17;5.15;;;0.75;;
24813;SDS011;12904;50.088;11.414;2022-09-09T13:49:50;3.83;;;0.80;;
24813;SDS011;12904;50.088;11.414;2022-09-09T13:52:16;1.98;;;0.60;;
24813;SDS011;12904;50.088;11.414;2022-09-09T13:54:52;2.03;;;0.57;;
24813;SDS011;12904;50.088;11.414;2022-09-09T13:57:23;0.60;;;0.40;;
24813;SDS011;12904;50.088;11.414;2022-09-09T13:59:50;1.52;;;0.52;;
24813;SDS011;12904;50.088;11.414;2022-09-09T14:02:17;1.00;;;0.40;;
24813;SDS011;12904;50.088;11.414;2022-09-09T14:04:43;0.40;;;0.30;;
24813;SDS011;12904;50.088;11.414;2022-09-09T14:07:13;0.52;;;0.38;;
24813;SDS011;12904;50.088;11.414;2022-09-09T14:09:41;2.05;;;0.40;;
24813;SDS011;12904;50.088;11.414;2022-09-09T14:12:11;1.42;;;0.60;;
24813;SDS011;12904;50.088;11.414;2022-09-09T14:14:37;1.50;;;0.63;;
24813;SDS011;12904;50.088;11.414;2022-09-09T14:17:03;1.23;;;0.50;;
24813;SDS011;12904;50.088;11.414;2022-09-09T14:19:29;0.70;;;0.30;;
24813;SDS011;12904;50.088;11.414;2022-09-09T14:21:56;2.20;;;0.43;;
24813;SDS011;12904;50.088;11.414;2022-09-09T14:24:22;1.35;;;0.32;;
24813;SDS011;12904;50.088;11.414;2022-09-09T14:26:48;0.93;;;0.30;;
24813;SDS011;12904;50.088;11.414;2022-09-09T14:29:14;0.98;;;0.50;;
24813;SDS011;12904;50.088;11.414;2022-09-09T14:31:39;1.75;;;0.40;;
24813;SDS011;12904;50.088;11.414;2022-09-09T14:34:05;1.08;;;0.40;;
24813;SDS011;12904;50.088;11.414;2022-09-09T14:36:31;0.88;;;0.35;;
24813;SDS011;12904;50.088;11.414;2022-09-09T14:38:58;8.80;;;0.70;;
24813;SDS011;12904;50.088;11.414;2022-09-09T14:41:23;1.67;;;0.40;;
24813;SDS011;12904;50.088;11.414;2022-09-09T14:43:50;1.65;;;0.40;;
24813;SDS011;12904;50.088;11.414;2022-09-09T14:46:17;1.30;;;0.40;;
24813;SDS011;12904;50.088;11.414;2022-09-09T14:48:44;1.17;;;0.30;;
24813;SDS011;12904;50.088;11.414;2022-09-09T14:51:14;1.88;;;0.40;;
24813;SDS011;12904;50.088;11.414;2022-09-09T14:53:42;1.08;;;0.50;;
24813;SDS011;12904;50.088;11.414;2022-09-09T14:58:36;1.73;;;0.50;;
24813;SDS011;12904;50.088;11.414;2022-09-09T15:01:07;0.80;;;0.40;;
24813;SDS011;12904;50.088;11.414;2022-09-09T15:03:37;0.98;;;0.40;;
24813;SDS011;12904;50.088;11.414;2022-09-09T15:06:07;7.50;;;0.50;;
24813;SDS011;12904;50.088;11.414;2022-09-09T15:08:35;1.77;;;0.57;;
24813;SDS011;12904;50.088;11.414;2022-09-09T15:11:01;1.48;;;0.50;;
24813;SDS011;12904;50.088;11.414;2022-09-09T15:13:28;3.17;;;0.50;;
24813;SDS011;12904;50.088;11.414;2022-09-09T15:15:54;1.65;;;0.40;;
24813;SDS011;12904;50.088;11.414;2022-09-09T15:18:20;2.33;;;0.60;;
24813;SDS011;12904;50.088;11.414;2022-09-09T15:20:46;1.98;;;0.52;;
24813;SDS011;12904;50.088;11.414;2022-09-09T15:23:13;1.58;;;0.45;;
24813;SDS011;12904;50.088;11.414;2022-09-09T15:25:49;1.35;;;0.40;;
24813;SDS011;12904;50.088;11.414;2022-09-09T15:28:19;0.60;;;0.30;;
24813;SDS011;12904;50.088;11.414;2022-09-09T15:30:49;2.53;;;0.47;;
24813;SDS011;12904;50.088;11.414;2022-09-09T15:33:15;1.83;;;0.40;;
24813;SDS011;12904;50.088;11.414;2022-09-09T15:35:41;1.42;;;0.50;;
24813;SDS011;12904;50.088;11.414;2022-09-09T15:38:06;0.52;;;0.40;;
24813;SDS011;12904;50.088;11.414;2022-09-09T15:40:32;1.27;;;0.52;;
24813;SDS011;12904;50.088;11.414;2022-09-09T15:42:58;0.82;;;0.43;;
24813;SDS011;12904;50.088;11.414;2022-09-09T15:45:24;3.78;;;0.50;;
24813;SDS011;12904;50.088;11.414;2022-09-09T15:47:50;1.40;;;0.60;;
24813;SDS011;12904;50.088;11.414;2022-09-09T15:50:15;1.40;;;0.55;;
24813;SDS011;12904;50.088;11.414;2022-09-09T15:52:41;1.25;;;0.68;;
24813;SDS011;12904;50.088;11.414;2022-09-09T15:55:07;1.40;;;0.50;;
24813;SDS011;12904;50.088;11.414;2022-09-09T15:57:33;1.70;;;0.52;;
24813;SDS011;12904;50.088;11.414;2022-09-09T16:00:00;1.00;;;0.50;;
24813;SDS011;12904;50.088;11.414;2022-09-09T16:02:29;0.73;;;0.40;;
24813;SDS011;12904;50.088;11.414;2022-09-09T16:04:55;1.05;;;0.40;;
24813;SDS011;12904;50.088;11.414;2022-09-09T16:07:22;2.05;;;0.55;;
24813;SDS011;12904;50.088;11.414;2022-09-09T16:09:48;1.77;;;0.52;;
24813;SDS011;12904;50.088;11.414;2022-09-09T16:12:16;1.67;;;0.55;;
24813;SDS011;12904;50.088;11.414;2022-09-09T16:14:42;1.48;;;0.70;;
24813;SDS011;12904;50.088;11.414;2022-09-09T16:17:08;3.72;;;0.73;;
24813;SDS011;12904;50.088;11.414;2022-09-09T16:19:34;1.23;;;0.50;;
24813;SDS011;12904;50.088;11.414;2022-09-09T16:22:00;1.38;;;0.50;;
24813;SDS011;12904;50.088;11.414;2022-09-09T16:24:25;2.67;;;0.47;;
24813;SDS011;12904;50.088;11.414;2022-09-09T16:26:52;0.98;;;0.43;;
24813;SDS011;12904;50.088;11.414;2022-09-09T16:29:19;1.02;;;0.40;;
24813;SDS011;12904;50.088;11.414;2022-09-09T16:31:47;1.05;;;0.50;;
24813;SDS011;12904;50.088;11.414;2022-09-09T16:34:17;2.13;;;0.52;;
24813;SDS011;12904;50.088;11.414;2022-09-09T16:36:43;2.75;;;1.80;;
24813;SDS011;12904;50.088;11.414;2022-09-09T16:39:14;1.35;;;0.60;;
24813;SDS011;12904;50.088;11.414;2022-09-09T16:41:42;1.17;;;0.47;;
24813;SDS011;12904;50.088;11.414;2022-09-09T16:44:09;2.35;;;0.60;;
24813;SDS011;12904;50.088;11.414;2022-09-09T16:46:37;1.38;;;0.50;;
24813;SDS011;12904;50.088;11.414;2022-09-09T16:49:06;1.25;;;0.40;;
24813;SDS011;12904;50.088;11.414;2022-09-09T16:51:44;0.93;;;0.50;;
24813;SDS011;12904;50.088;11.414;2022-09-09T16:54:12;1.23;;;0.40;;
24813;SDS011;12904;50.088;11.414;2022-09-09T16:56:40;1.60;;;0.70;;
24813;SDS011;12904;50.088;11.414;2022-09-09T16:59:12;1.60;;;0.70;;
24813;SDS011;12904;50.088;11.414;2022-09-09T17:04:09;1.08;;;0.50;;
24813;SDS011;12904;50.088;11.414;2022-09-09T17:06:41;0.93;;;0.70;;